createdAt,value
2022-09-04T00:00:08.466Z,19.70
2022-09-04T00:02:40.875Z,19.70
2022-09-04T00:05:24.032Z,19.60
2022-09-04T00:08:14.105Z,19.60
2022-09-04T00:10:47.436Z,19.70
2022-09-04T00:13:27.564Z,19.60
2022-09-04T00:16:05.221Z,19.60
2022-09-04T00:18:46.696Z,19.60
2022-09-04T00:21:21.520Z,19.50
2022-09-04T00:23:54.732Z,19.50
2022-09-04T00:26:40.997Z,19.40
2022-09-04T00:29:36.399Z,19.40
2022-09-04T00:32:21.691Z,19.30
2022-09-04T00:35:08.277Z,19.30
2022-09-04T00:37:46.914Z,19.30
2022-09-04T00:40:31.204Z,19.20
2022-09-04T00:43:19.941Z,19.20
2022-09-04T00:46:13.853Z,19.20
2022-09-04T00:48:49.551Z,19.20
2022-09-04T00:51:41.328Z,19.10
2022-09-04T00:54:29.645Z,19.10
2022-09-04T00:57:24.428Z,19.10
2022-09-04T01:00:30.803Z,19.10
2022-09-04T01:03:34.298Z,19.10
2022-09-04T01:06:55.400Z,19.00
2022-09-04T01:09:49.320Z,19.00
2022-09-04T01:12:21.722Z,19.00
2022-09-04T01:15:00.969Z,19.00
2022-09-04T01:17:38.930Z,18.90
2022-09-04T01:20:14.473Z,19.00
2022-09-04T01:23:02.624Z,18.90
2022-09-04T01:25:48.122Z,18.90
2022-09-04T01:28:48.550Z,19.00
2022-09-04T01:31:36.926Z,18.90
2022-09-04T01:34:40.834Z,18.90
2022-09-04T01:37:47.070Z,18.90
2022-09-04T01:40:43.862Z,18.90
2022-09-04T01:43:21.153Z,18.80
2022-09-04T01:46:26.465Z,18.80
2022-09-04T01:49:30.713Z,18.80
2022-09-04T01:52:03.933Z,18.80
2022-09-04T01:54:37.785Z,18.80
2022-09-04T01:57:23.352Z,18.80
2022-09-04T02:00:05.872Z,18.80
2022-09-04T02:03:10.188Z,18.70
2022-09-04T02:05:58.178Z,18.70
2022-09-04T02:08:48.878Z,18.60
2022-09-04T02:11:28.080Z,18.60
2022-09-04T02:14:19.714Z,18.60
2022-09-04T02:17:32.662Z,18.60
2022-09-04T02:20:25.479Z,18.50
2022-09-04T02:23:07.636Z,18.50
2022-09-04T02:25:45.986Z,18.40
2022-09-04T02:28:37.031Z,18.40
2022-09-04T02:31:22.439Z,18.30
2022-09-04T02:34:13.180Z,18.40
2022-09-04T02:36:45.613Z,18.30
2022-09-04T02:39:39.424Z,18.30
2022-09-04T02:42:32.237Z,18.30
2022-09-04T02:45:43.978Z,18.30
2022-09-04T02:48:35.092Z,18.30
2022-09-04T02:51:48.719Z,18.30
2022-09-04T02:54:30.155Z,18.30
2022-09-04T02:57:34.116Z,18.30
2022-09-04T03:00:21.213Z,18.30
2022-09-04T03:03:21.005Z,18.30
2022-09-04T03:05:58.942Z,18.20
2022-09-04T03:08:53.937Z,18.20
2022-09-04T03:11:33.340Z,18.20
2022-09-04T03:14:10.382Z,18.20
2022-09-04T03:17:08.423Z,18.30
2022-09-04T03:19:49.312Z,18.30
2022-09-04T03:22:24.454Z,18.20
2022-09-04T03:25:11.963Z,18.20
2022-09-04T03:27:38.837Z,18.20
2022-09-04T03:30:07.271Z,18.20
2022-09-04T03:32:46.148Z,18.20
2022-09-04T03:35:44.736Z,18.20
2022-09-04T03:38:38.266Z,18.20
2022-09-04T03:41:11.181Z,18.10
2022-09-04T03:44:03.207Z,18.20
2022-09-04T03:47:01.596Z,18.20
2022-09-04T03:49:44.153Z,18.10
2022-09-04T03:52:36.771Z,18.20
2022-09-04T03:55:09.000Z,18.20
2022-09-04T03:57:45.208Z,18.20
2022-09-04T04:00:19.885Z,18.20
2022-09-04T04:02:55.343Z,18.20
2022-09-04T04:05:44.802Z,18.20
2022-09-04T04:08:48.332Z,18.10
2022-09-04T04:11:43.305Z,18.10
2022-09-04T04:14:38.304Z,18.10
2022-09-04T04:17:31.905Z,18.10
2022-09-04T04:20:24.361Z,18.00
2022-09-04T04:23:10.824Z,18.00
2022-09-04T04:25:52.259Z,18.00
2022-09-04T04:28:35.955Z,18.00
2022-09-04T04:31:26.809Z,18.00
2022-09-04T04:34:20.576Z,18.00
2022-09-04T04:36:59.303Z,18.00
2022-09-04T04:39:55.619Z,18.00
2022-09-04T04:42:47.610Z,17.90
2022-09-04T04:45:51.544Z,17.90
2022-09-04T04:48:45.038Z,17.90
2022-09-04T04:51:59.173Z,17.90
2022-09-04T04:54:31.927Z,17.90
2022-09-04T04:57:18.420Z,17.90
2022-09-04T05:00:07.392Z,17.90
2022-09-04T05:02:55.447Z,17.80
2022-09-04T05:06:13.909Z,17.80
2022-09-04T05:08:52.454Z,17.80
2022-09-04T05:11:34.274Z,17.80
2022-09-04T05:14:28.043Z,17.70
2022-09-04T05:17:14.197Z,17.70
2022-09-04T05:19:50.195Z,17.70
2022-09-04T05:22:34.413Z,17.70
2022-09-04T05:25:10.108Z,17.70
2022-09-04T05:27:58.989Z,17.80
2022-09-04T05:30:44.185Z,17.70
2022-09-04T05:33:10.905Z,17.80
2022-09-04T05:35:50.104Z,17.80
2022-09-04T05:38:41.149Z,17.80
2022-09-04T05:41:18.078Z,17.80
2022-09-04T05:44:05.540Z,17.80
2022-09-04T05:46:58.923Z,17.80
2022-09-04T05:49:47.515Z,17.90
2022-09-04T05:52:34.681Z,17.90
2022-09-04T05:55:07.413Z,17.90
2022-09-04T05:58:12.444Z,18.00
2022-09-04T06:00:55.830Z,18.00
2022-09-04T06:03:30.188Z,18.10
2022-09-04T06:06:11.236Z,18.10
2022-09-04T06:08:40.772Z,18.20
2022-09-04T06:11:33.527Z,18.20
2022-09-04T06:14:45.004Z,18.30
2022-09-04T06:17:42.686Z,18.30
2022-09-04T06:20:20.862Z,18.40
2022-09-04T06:23:03.045Z,18.50
2022-09-04T06:25:59.062Z,18.60
2022-09-04T06:28:49.070Z,18.70
2022-09-04T06:31:21.813Z,18.80
2022-09-04T06:34:15.196Z,18.90
2022-09-04T06:37:02.985Z,19.00
2022-09-04T06:40:05.130Z,19.10
2022-09-04T06:43:02.022Z,19.20
2022-09-04T06:46:07.359Z,19.30
2022-09-04T06:49:01.447Z,19.40
2022-09-04T06:51:35.264Z,19.50
2022-09-04T06:54:15.923Z,19.60
2022-09-04T06:57:09.903Z,19.70
2022-09-04T06:59:48.486Z,19.80
2022-09-04T07:02:59.554Z,19.90
2022-09-04T07:05:44.283Z,20.00
2022-09-04T07:08:29.554Z,20.10
2022-09-04T07:11:25.069Z,20.10
2022-09-04T07:14:16.573Z,20.30
2022-09-04T07:16:55.865Z,20.40
2022-09-04T07:19:58.535Z,20.50
2022-09-04T07:22:52.994Z,20.60
2022-09-04T07:25:26.330Z,20.70
2022-09-04T07:28:20.419Z,20.90
2022-09-04T07:31:03.698Z,20.90
2022-09-04T07:33:39.339Z,21.10
2022-09-04T07:36:16.713Z,21.20
2022-09-04T07:38:57.038Z,21.30
2022-09-04T07:41:38.579Z,21.40
2022-09-04T07:44:24.434Z,21.40
2022-09-04T07:47:12.075Z,21.50
2022-09-04T07:50:17.775Z,21.60
2022-09-04T07:53:16.913Z,21.70
2022-09-04T07:55:51.258Z,21.90
2022-09-04T07:58:54.480Z,22.00
2022-09-04T08:01:54.453Z,22.10
2022-09-04T08:04:25.771Z,22.20
2022-09-04T08:06:56.992Z,22.30
2022-09-04T08:09:53.908Z,22.40
2022-09-04T08:12:56.356Z,22.50
2022-09-04T08:15:40.939Z,22.60
2022-09-04T08:18:47.780Z,22.70
2022-09-04T08:21:42.503Z,22.70
2022-09-04T08:24:18.147Z,22.80
2022-09-04T08:27:14.674Z,22.90
2022-09-04T08:29:55.797Z,23.00
2022-09-04T08:32:46.819Z,23.00
2022-09-04T08:35:40.674Z,23.10
2022-09-04T08:38:25.917Z,23.20
2022-09-04T08:41:20.075Z,23.40
2022-09-04T08:44:04.468Z,23.50
2022-09-04T08:47:01.640Z,23.60
2022-09-04T08:50:03.464Z,23.70
2022-09-04T08:52:54.559Z,23.80
2022-09-04T08:55:58.629Z,23.80
2022-09-04T08:58:34.577Z,23.90
2022-09-04T09:01:40.836Z,24.10
2022-09-04T09:04:19.765Z,24.10
2022-09-04T09:07:14.051Z,24.10
2022-09-04T09:10:01.810Z,24.20
2022-09-04T09:12:41.324Z,24.20
2022-09-04T09:15:24.443Z,24.30
2022-09-04T09:18:35.762Z,24.30
2022-09-04T09:21:12.309Z,24.40
2022-09-04T09:23:56.757Z,24.50
2022-09-04T09:26:26.511Z,24.50
2022-09-04T09:28:59.395Z,24.60
2022-09-04T09:31:55.409Z,24.60
2022-09-04T09:34:23.926Z,24.60
2022-09-04T09:37:12.554Z,24.60
2022-09-04T09:39:42.055Z,24.70
2022-09-04T09:42:49.385Z,24.80
2022-09-04T09:45:23.147Z,24.90
2022-09-04T09:48:11.997Z,25.00
2022-09-04T09:50:49.055Z,25.10
2022-09-04T09:53:58.455Z,25.10
2022-09-04T09:56:36.603Z,25.20
2022-09-04T09:59:48.442Z,25.30
2022-09-04T10:02:43.510Z,25.40
2022-09-04T10:05:16.147Z,25.40
2022-09-04T10:08:13.674Z,25.50
2022-09-04T10:10:52.326Z,25.60
2022-09-04T10:13:38.048Z,25.60
2022-09-04T10:16:28.029Z,25.60
2022-09-04T10:19:18.999Z,25.70
2022-09-04T10:22:16.949Z,25.80
2022-09-04T10:25:23.836Z,25.90
2022-09-04T10:28:27.518Z,25.90
2022-09-04T10:31:26.985Z,25.90
2022-09-04T10:34:19.239Z,25.80
2022-09-04T10:37:30.116Z,25.80
2022-09-04T10:40:37.629Z,25.80
2022-09-04T10:43:38.735Z,25.80
2022-09-04T10:46:08.441Z,25.70
2022-09-04T10:48:59.930Z,25.80
2022-09-04T10:52:06.421Z,25.80
2022-09-04T10:54:48.189Z,25.90
2022-09-04T10:57:27.709Z,25.90
2022-09-04T11:00:03.376Z,26.00
2022-09-04T11:02:42.596Z,26.10
2022-09-04T11:05:27.863Z,26.20
2022-09-04T11:07:58.285Z,26.40
2022-09-04T11:10:36.333Z,26.50
2022-09-04T11:13:09.294Z,26.60
2022-09-04T11:15:59.836Z,26.70
2022-09-04T11:18:38.102Z,26.90
2022-09-04T11:21:41.908Z,27.00
2022-09-04T11:24:35.266Z,27.10
2022-09-04T11:27:25.144Z,27.30
2022-09-04T11:30:20.940Z,27.50
2022-09-04T11:32:53.570Z,27.50
2022-09-04T11:35:51.939Z,27.50
2022-09-04T11:39:15.298Z,27.40
2022-09-04T11:42:09.604Z,27.20
2022-09-04T11:45:16.762Z,27.10
2022-09-04T11:48:09.320Z,26.90
2022-09-04T11:51:16.446Z,26.80
2022-09-04T11:54:00.996Z,26.70
2022-09-04T11:57:04.264Z,26.70
2022-09-04T12:00:01.774Z,26.70
2022-09-04T12:03:08.439Z,26.70
2022-09-04T12:06:09.439Z,26.80
2022-09-04T12:08:54.151Z,26.90
2022-09-04T12:12:08.161Z,27.00
2022-09-04T12:15:08.580Z,27.10
2022-09-04T12:18:17.039Z,27.20
2022-09-04T12:20:55.439Z,27.30
2022-09-04T12:23:35.809Z,27.40
2022-09-04T12:26:12.653Z,27.60
2022-09-04T12:28:47.631Z,27.70
2022-09-04T12:31:43.924Z,27.60
2022-09-04T12:34:34.035Z,27.70
2022-09-04T12:37:43.576Z,27.80
2022-09-04T12:40:31.759Z,27.90
2022-09-04T12:43:36.880Z,28.00
2022-09-04T12:46:26.690Z,28.10
2022-09-04T12:49:34.836Z,28.10
2022-09-04T12:52:45.892Z,28.10
2022-09-04T12:55:38.323Z,28.20
2022-09-04T12:58:26.284Z,28.20
2022-09-04T13:01:08.564Z,28.20
2022-09-04T13:03:44.730Z,28.30
2022-09-04T13:06:29.088Z,28.40
2022-09-04T13:08:56.570Z,28.60
2022-09-04T13:11:40.442Z,28.70
2022-09-04T13:14:57.590Z,28.70
2022-09-04T13:17:58.446Z,28.80
2022-09-04T13:20:40.336Z,28.80
2022-09-04T13:23:26.891Z,28.90
2022-09-04T13:26:12.945Z,29.00
2022-09-04T13:28:55.325Z,29.20
2022-09-04T13:31:33.508Z,29.30
2022-09-04T13:34:17.472Z,29.30
2022-09-04T13:37:21.228Z,29.40
2022-09-04T13:39:50.939Z,29.30
2022-09-04T13:42:23.234Z,29.40
2022-09-04T13:45:02.172Z,29.40
2022-09-04T13:47:51.858Z,29.50
2022-09-04T13:50:32.609Z,29.60
2022-09-04T13:53:22.951Z,29.60
2022-09-04T13:55:57.322Z,29.60
2022-09-04T13:58:38.453Z,29.50
2022-09-04T14:01:11.003Z,29.40
2022-09-04T14:03:52.959Z,29.30
2022-09-04T14:06:23.461Z,29.10
2022-09-04T14:09:05.540Z,29.00
2022-09-04T14:11:39.348Z,29.10
2022-09-04T14:14:41.325Z,29.00
2022-09-04T14:17:09.346Z,29.00
2022-09-04T14:19:57.716Z,28.90
2022-09-04T14:22:56.328Z,29.00
2022-09-04T14:25:37.771Z,29.20
2022-09-04T14:28:10.951Z,29.40
2022-09-04T14:30:52.806Z,29.50
2022-09-04T14:33:44.243Z,29.70
2022-09-04T14:36:42.170Z,29.90
2022-09-04T14:39:56.108Z,30.00
2022-09-04T14:42:43.993Z,30.20
2022-09-04T14:45:31.155Z,30.20
2022-09-04T14:48:03.733Z,30.10
2022-09-04T14:50:34.309Z,30.00
2022-09-04T14:53:08.422Z,29.80
2022-09-04T14:55:42.079Z,29.70
2022-09-04T14:58:21.752Z,29.70
2022-09-04T15:01:07.218Z,29.60
2022-09-04T15:03:58.263Z,29.40
2022-09-04T15:06:44.568Z,29.30
2022-09-04T15:09:35.048Z,29.10
2022-09-04T15:12:36.698Z,29.00
2022-09-04T15:15:21.129Z,29.00
2022-09-04T15:18:15.836Z,29.00
2022-09-04T15:20:58.497Z,29.10
2022-09-04T15:23:36.050Z,29.20
2022-09-04T15:26:12.394Z,29.20
2022-09-04T15:28:50.165Z,29.30
2022-09-04T15:31:21.731Z,29.30
2022-09-04T15:33:49.197Z,29.30
2022-09-04T15:36:20.816Z,29.30
2022-09-04T15:38:53.795Z,29.40
2022-09-04T15:41:42.170Z,29.40
2022-09-04T15:44:20.191Z,29.40
2022-09-04T15:47:13.108Z,29.40
2022-09-04T15:50:04.440Z,29.20
2022-09-04T15:52:58.541Z,29.10
2022-09-04T15:55:31.032Z,28.90
2022-09-04T15:58:22.948Z,28.70
2022-09-04T16:01:19.202Z,28.50
2022-09-04T16:04:01.347Z,28.30
2022-09-04T16:06:34.599Z,28.10
2022-09-04T16:09:25.707Z,27.90
2022-09-04T16:12:07.003Z,27.80
2022-09-04T16:15:12.636Z,27.70
2022-09-04T16:17:47.073Z,27.60
2022-09-04T16:20:36.281Z,27.70
2022-09-04T16:23:08.491Z,27.80
2022-09-04T16:25:39.720Z,27.80
2022-09-04T16:28:12.280Z,27.80
2022-09-04T16:30:50.810Z,27.80
2022-09-04T16:33:30.099Z,27.80
2022-09-04T16:36:04.946Z,27.70
2022-09-04T16:39:03.455Z,27.60
2022-09-04T16:41:35.316Z,27.60
2022-09-04T16:44:22.129Z,27.60
2022-09-04T16:47:04.729Z,27.50
2022-09-04T16:49:52.643Z,27.50
2022-09-04T16:52:40.254Z,27.40
2022-09-04T16:55:21.527Z,27.40
2022-09-04T16:58:07.131Z,27.30
2022-09-04T17:01:13.843Z,27.30
2022-09-04T17:04:12.574Z,27.30
2022-09-04T17:07:02.859Z,27.30
2022-09-04T17:09:44.281Z,27.30
2022-09-04T17:12:35.183Z,27.30
2022-09-04T17:15:23.227Z,27.20
2022-09-04T17:17:53.749Z,27.10
2022-09-04T17:20:50.293Z,27.00
2022-09-04T17:29:00.320Z,27.00
2022-09-04T17:29:09.738Z,26.90
2022-09-04T17:29:41.698Z,26.80
2022-09-04T17:37:13.314Z,26.80
2022-09-04T17:40:35.641Z,26.80
2022-09-04T17:40:39.728Z,26.90
2022-09-04T17:41:39.508Z,26.80
2022-09-04T17:44:19.684Z,26.60
2022-09-04T17:46:57.824Z,26.50
2022-09-04T17:49:34.725Z,26.40
2022-09-04T17:52:11.608Z,26.20
2022-09-04T17:54:43.080Z,26.00
2022-09-04T17:57:28.818Z,25.90
2022-09-04T18:00:09.153Z,25.80
2022-09-04T18:02:42.654Z,25.70
2022-09-04T18:05:18.887Z,25.50
2022-09-04T18:08:09.885Z,25.40
2022-09-04T18:11:07.952Z,25.30
2022-09-04T18:14:03.301Z,25.20
2022-09-04T18:16:36.051Z,25.00
2022-09-04T18:19:20.921Z,24.90
2022-09-04T18:22:25.644Z,24.80
2022-09-04T18:25:17.280Z,24.60
2022-09-04T18:28:11.654Z,24.50
2022-09-04T18:37:09.858Z,24.30
2022-09-04T18:37:21.164Z,24.20
2022-09-04T18:37:44.317Z,24.10
2022-09-04T18:44:44.525Z,24.00
2022-09-04T18:50:32.849Z,23.90
2022-09-04T18:50:34.794Z,23.60
2022-09-04T18:50:35.602Z,23.70
2022-09-04T18:52:06.228Z,23.50
2022-09-04T18:54:45.987Z,23.40
2022-09-04T18:57:56.034Z,23.40
2022-09-04T19:00:41.027Z,23.30
2022-09-04T19:03:23.264Z,23.20
2022-09-04T19:05:56.655Z,23.10
2022-09-04T19:08:31.791Z,23.10
2022-09-04T19:11:20.334Z,23.00
2022-09-04T19:13:50.466Z,23.00
2022-09-04T19:16:28.837Z,22.90
2022-09-04T19:19:31.827Z,22.80
2022-09-04T19:22:28.324Z,22.80
2022-09-04T19:25:21.693Z,22.70
2022-09-04T19:27:56.605Z,22.60
2022-09-04T19:30:26.619Z,22.50
2022-09-04T19:33:06.847Z,22.50
2022-09-04T19:35:45.337Z,22.40
2022-09-04T19:45:56.102Z,22.30
2022-09-04T19:46:03.051Z,22.30
2022-09-04T19:46:11.432Z,22.20
2022-09-04T19:47:47.645Z,22.20
2022-09-04T19:53:20.305Z,22.10
2022-09-04T19:53:37.988Z,22.00
2022-09-04T19:56:23.592Z,22.00
2022-09-04T19:59:04.478Z,22.00
2022-09-04T20:01:50.888Z,21.90
2022-09-04T20:04:43.009Z,21.90
2022-09-04T20:07:16.592Z,21.80
2022-09-04T20:09:43.344Z,21.80
2022-09-04T20:12:21.316Z,21.70
2022-09-04T20:15:14.493Z,21.70
2022-09-04T20:17:47.349Z,21.70
2022-09-04T20:20:29.092Z,21.60
2022-09-04T20:23:02.257Z,21.60
2022-09-04T20:26:10.263Z,21.50
2022-09-04T20:28:51.862Z,21.50
2022-09-04T20:31:38.955Z,21.50
2022-09-04T20:34:17.743Z,21.40
2022-09-04T20:36:51.605Z,21.40
2022-09-04T20:39:41.433Z,21.30
2022-09-04T20:42:33.481Z,21.30
2022-09-04T20:47:17.586Z,21.20
2022-09-04T20:52:43.332Z,21.20
2022-09-04T20:52:53.517Z,21.10
2022-09-04T20:54:17.440Z,21.00
2022-09-04T20:58:52.368Z,21.00
2022-09-04T21:03:22.137Z,20.90
2022-09-04T21:06:16.764Z,20.90
2022-09-04T21:09:13.172Z,20.90
2022-09-04T21:11:45.120Z,20.80
2022-09-04T21:14:45.881Z,20.80
2022-09-04T21:17:42.558Z,20.80
2022-09-04T21:20:12.087Z,20.80
2022-09-04T21:23:16.306Z,20.70
2022-09-04T21:25:51.591Z,20.70
2022-09-04T21:29:09.109Z,20.70
2022-09-04T21:32:04.009Z,20.60
2022-09-04T21:35:03.765Z,20.60
2022-09-04T21:38:05.220Z,20.50
2022-09-04T21:41:04.306Z,20.50
2022-09-04T21:44:02.502Z,20.50
2022-09-04T21:47:08.360Z,20.50
2022-09-04T21:50:10.708Z,20.40
2022-09-04T21:52:52.993Z,20.40
2022-09-04T22:01:46.849Z,20.40
2022-09-04T22:02:35.906Z,20.30
2022-09-04T22:02:42.420Z,20.30
2022-09-04T22:04:45.020Z,20.30
2022-09-04T22:13:27.142Z,20.20
2022-09-04T22:13:28.352Z,20.20
2022-09-04T22:13:57.989Z,20.10
2022-09-04T22:17:03.273Z,20.10
2022-09-04T22:19:29.994Z,20.10
2022-09-04T22:22:24.285Z,20.00
2022-09-04T22:25:25.589Z,20.00
2022-09-04T22:28:23.023Z,20.00
2022-09-04T22:30:59.259Z,20.00
2022-09-04T22:33:48.481Z,19.90
2022-09-04T22:36:42.097Z,19.90
2022-09-04T22:39:52.435Z,19.90
2022-09-04T22:42:50.226Z,19.80
2022-09-04T22:45:29.039Z,19.80
2022-09-04T22:48:08.027Z,19.70
2022-09-04T22:50:50.387Z,19.70
2022-09-04T22:53:59.814Z,19.70
2022-09-04T22:56:44.748Z,19.60
2022-09-04T22:59:26.642Z,19.60
2022-09-04T23:02:13.366Z,19.60
2022-09-04T23:04:58.871Z,19.60
2022-09-04T23:13:22.042Z,19.50
2022-09-04T23:13:49.990Z,19.50
2022-09-04T23:13:58.176Z,19.40
2022-09-04T23:16:28.271Z,19.30
2022-09-04T23:22:35.524Z,19.30
2022-09-04T23:26:41.904Z,19.20
2022-09-04T23:26:46.816Z,19.20
2022-09-04T23:29:15.886Z,19.10
2022-09-04T23:32:10.075Z,19.10
2022-09-04T23:34:50.752Z,19.00
2022-09-04T23:37:42.071Z,19.00
2022-09-04T23:40:26.597Z,19.00
2022-09-04T23:43:04.238Z,18.90
2022-09-04T23:46:01.732Z,18.90
2022-09-04T23:48:37.230Z,18.90
2022-09-04T23:51:30.533Z,18.80
2022-09-04T23:54:24.600Z,18.80
2022-09-04T23:57:08.094Z,18.70
2022-09-04T23:59:57.544Z,18.70
